sensor_id;sensor_type;location;lat;lon;timestamp;temperature;humidity
41924;DHT22;27613;48.116;11.656;2023-07-20T00:01:43;21.60;70.80
41924;DHT22;27613;48.116;11.656;2023-07-20T00:04:11;21.70;70.80
41924;DHT22;27613;48.116;11.656;2023-07-20T00:06:36;21.60;70.80
41924;DHT22;27613;48.116;11.656;2023-07-20T00:09:06;21.60;70.50
41924;DHT22;27613;48.116;11.656;2023-07-20T00:11:35;21.50;70.80
41924;DHT22;27613;48.116;11.656;2023-07-20T00:14:01;21.50;70.70
41924;DHT22;27613;48.116;11.656;2023-07-20T00:16:27;21.40;71.10
41924;DHT22;27613;48.116;11.656;2023-07-20T00:18:52;21.40;71.30
41924;DHT22;27613;48.116;11.656;2023-07-20T00:21:18;21.40;71.50
41924;DHT22;27613;48.116;11.656;2023-07-20T00:23:43;21.30;71.50
41924;DHT22;27613;48.116;11.656;2023-07-20T00:26:09;21.30;72.20
41924;DHT22;27613;48.116;11.656;2023-07-20T00:28:34;21.20;71.80
41924;DHT22;27613;48.116;11.656;2023-07-20T00:31:00;21.20;71.90
41924;DHT22;27613;48.116;11.656;2023-07-20T00:33:26;21.20;72.10
41924;DHT22;27613;48.116;11.656;2023-07-20T00:35:52;21.10;72.30
41924;DHT22;27613;48.116;11.656;2023-07-20T00:38:18;21.10;72.70
41924;DHT22;27613;48.116;11.656;2023-07-20T00:40:43;21.10;72.90
41924;DHT22;27613;48.116;11.656;2023-07-20T00:43:09;21.00;73.00
41924;DHT22;27613;48.116;11.656;2023-07-20T00:45:36;21.00;73.20
41924;DHT22;27613;48.116;11.656;2023-07-20T00:48:02;21.00;73.40
41924;DHT22;27613;48.116;11.656;2023-07-20T00:50:29;21.00;73.40
41924;DHT22;27613;48.116;11.656;2023-07-20T00:52:55;21.00;73.50
41924;DHT22;27613;48.116;11.656;2023-07-20T00:55:23;21.00;73.40
41924;DHT22;27613;48.116;11.656;2023-07-20T00:57:49;21.00;73.80
41924;DHT22;27613;48.116;11.656;2023-07-20T01:00:15;21.00;73.70
41924;DHT22;27613;48.116;11.656;2023-07-20T01:02:40;21.00;73.40
41924;DHT22;27613;48.116;11.656;2023-07-20T01:05:06;21.00;73.90
41924;DHT22;27613;48.116;11.656;2023-07-20T01:07:38;21.00;73.90
41924;DHT22;27613;48.116;11.656;2023-07-20T01:10:15;21.00;74.00
41924;DHT22;27613;48.116;11.656;2023-07-20T01:12:43;21.00;73.90
41924;DHT22;27613;48.116;11.656;2023-07-20T01:15:11;21.00;74.00
41924;DHT22;27613;48.116;11.656;2023-07-20T01:17:37;21.00;74.20
41924;DHT22;27613;48.116;11.656;2023-07-20T01:20:03;20.90;74.20
41924;DHT22;27613;48.116;11.656;2023-07-20T01:25:56;20.90;74.70
41924;DHT22;27613;48.116;11.656;2023-07-20T01:28:50;20.90;74.90
41924;DHT22;27613;48.116;11.656;2023-07-20T01:31:24;20.90;75.20
41924;DHT22;27613;48.116;11.656;2023-07-20T01:33:53;20.90;75.40
41924;DHT22;27613;48.116;11.656;2023-07-20T01:36:19;20.80;76.10
41924;DHT22;27613;48.116;11.656;2023-07-20T01:38:47;20.80;75.50
41924;DHT22;27613;48.116;11.656;2023-07-20T01:41:13;20.90;75.80
41924;DHT22;27613;48.116;11.656;2023-07-20T01:43:40;20.80;75.70
41924;DHT22;27613;48.116;11.656;2023-07-20T01:46:05;20.80;75.60
41924;DHT22;27613;48.116;11.656;2023-07-20T01:48:31;20.80;76.00
41924;DHT22;27613;48.116;11.656;2023-07-20T01:50:57;20.80;76.20
41924;DHT22;27613;48.116;11.656;2023-07-20T01:53:22;20.80;76.30
41924;DHT22;27613;48.116;11.656;2023-07-20T01:55:48;20.70;77.30
41924;DHT22;27613;48.116;11.656;2023-07-20T01:58:14;20.60;77.40
41924;DHT22;27613;48.116;11.656;2023-07-20T02:00:39;20.50;78.10
41924;DHT22;27613;48.116;11.656;2023-07-20T02:03:05;20.50;78.60
41924;DHT22;27613;48.116;11.656;2023-07-20T02:05:30;20.40;78.80
41924;DHT22;27613;48.116;11.656;2023-07-20T02:07:56;20.30;79.40
41924;DHT22;27613;48.116;11.656;2023-07-20T02:10:21;20.20;80.50
41924;DHT22;27613;48.116;11.656;2023-07-20T02:12:47;20.10;81.20
41924;DHT22;27613;48.116;11.656;2023-07-20T02:15:14;20.20;80.70
41924;DHT22;27613;48.116;11.656;2023-07-20T02:17:42;20.20;81.20
41924;DHT22;27613;48.116;11.656;2023-07-20T02:20:09;20.20;80.30
41924;DHT22;27613;48.116;11.656;2023-07-20T02:22:38;20.20;80.30
41924;DHT22;27613;48.116;11.656;2023-07-20T02:25:07;20.30;80.80
41924;DHT22;27613;48.116;11.656;2023-07-20T02:27:34;20.10;81.70
41924;DHT22;27613;48.116;11.656;2023-07-20T02:29:59;20.00;82.30
41924;DHT22;27613;48.116;11.656;2023-07-20T02:32:25;20.00;82.60
41924;DHT22;27613;48.116;11.656;2023-07-20T02:34:51;20.00;81.70
41924;DHT22;27613;48.116;11.656;2023-07-20T02:37:17;20.00;81.50
41924;DHT22;27613;48.116;11.656;2023-07-20T02:39:42;20.00;80.80
41924;DHT22;27613;48.116;11.656;2023-07-20T02:42:08;20.00;81.40
41924;DHT22;27613;48.116;11.656;2023-07-20T02:44:34;20.00;81.10
41924;DHT22;27613;48.116;11.656;2023-07-20T02:46:59;20.00;79.90
41924;DHT22;27613;48.116;11.656;2023-07-20T02:49:25;20.00;80.10
41924;DHT22;27613;48.116;11.656;2023-07-20T02:51:50;20.00;79.90
41924;DHT22;27613;48.116;11.656;2023-07-20T02:54:16;20.00;79.70
41924;DHT22;27613;48.116;11.656;2023-07-20T02:56:41;20.00;79.80
41924;DHT22;27613;48.116;11.656;2023-07-20T02:59:07;20.00;79.60
41924;DHT22;27613;48.116;11.656;2023-07-20T03:01:33;20.10;79.60
41924;DHT22;27613;48.116;11.656;2023-07-20T03:03:58;20.00;79.80
41924;DHT22;27613;48.116;11.656;2023-07-20T03:06:24;20.00;84.20
41924;DHT22;27613;48.116;11.656;2023-07-20T03:08:49;19.60;90.30
41924;DHT22;27613;48.116;11.656;2023-07-20T03:11:18;19.10;94.90
41924;DHT22;27613;48.116;11.656;2023-07-20T03:13:44;18.80;99.90
41924;DHT22;27613;48.116;11.656;2023-07-20T03:16:17;18.60;99.90
41924;DHT22;27613;48.116;11.656;2023-07-20T03:18:43;18.40;99.90
41924;DHT22;27613;48.116;11.656;2023-07-20T03:21:09;18.30;99.90
41924;DHT22;27613;48.116;11.656;2023-07-20T03:23:37;18.00;99.90
41924;DHT22;27613;48.116;11.656;2023-07-20T03:26:02;18.00;99.90
41924;DHT22;27613;48.116;11.656;2023-07-20T03:28:28;18.00;99.90
41924;DHT22;27613;48.116;11.656;2023-07-20T03:30:54;18.00;99.90
41924;DHT22;27613;48.116;11.656;2023-07-20T03:33:27;18.00;99.90
41924;DHT22;27613;48.116;11.656;2023-07-20T03:35:53;18.10;99.90
41924;DHT22;27613;48.116;11.656;2023-07-20T03:38:19;18.00;99.90
41924;DHT22;27613;48.116;11.656;2023-07-20T03:40:58;18.00;99.90
41924;DHT22;27613;48.116;11.656;2023-07-20T03:43:25;17.70;99.90
41924;DHT22;27613;48.116;11.656;2023-07-20T03:45:51;17.50;99.90
41924;DHT22;27613;48.116;11.656;2023-07-20T03:48:22;17.40;99.90
41924;DHT22;27613;48.116;11.656;2023-07-20T03:50:50;17.40;99.90
41924;DHT22;27613;48.116;11.656;2023-07-20T03:53:16;17.40;99.90
41924;DHT22;27613;48.116;11.656;2023-07-20T03:55:46;17.30;99.90
41924;DHT22;27613;48.116;11.656;2023-07-20T03:58:12;17.30;99.90
41924;DHT22;27613;48.116;11.656;2023-07-20T04:00:39;17.40;99.90
41924;DHT22;27613;48.116;11.656;2023-07-20T04:03:05;17.40;99.90
41924;DHT22;27613;48.116;11.656;2023-07-20T04:05:30;17.40;99.90
41924;DHT22;27613;48.116;11.656;2023-07-20T04:07:56;17.50;99.90
41924;DHT22;27613;48.116;11.656;2023-07-20T04:10:21;17.40;99.90
41924;DHT22;27613;48.116;11.656;2023-07-20T04:12:47;17.40;99.90
41924;DHT22;27613;48.116;11.656;2023-07-20T04:15:13;17.30;99.90
41924;DHT22;27613;48.116;11.656;2023-07-20T04:17:40;17.40;99.90
41924;DHT22;27613;48.116;11.656;2023-07-20T04:20:06;17.40;99.90
41924;DHT22;27613;48.116;11.656;2023-07-20T04:22:32;17.40;99.90
41924;DHT22;27613;48.116;11.656;2023-07-20T04:24:58;17.50;99.90
41924;DHT22;27613;48.116;11.656;2023-07-20T04:27:23;17.40;99.90
41924;DHT22;27613;48.116;11.656;2023-07-20T04:29:49;17.40;99.90
41924;DHT22;27613;48.116;11.656;2023-07-20T04:32:14;17.50;99.90
41924;DHT22;27613;48.116;11.656;2023-07-20T04:34:40;17.50;99.90
41924;DHT22;27613;48.116;11.656;2023-07-20T04:37:05;17.40;99.90
41924;DHT22;27613;48.116;11.656;2023-07-20T04:39:31;17.50;99.90
41924;DHT22;27613;48.116;11.656;2023-07-20T04:41:57;17.50;99.90
41924;DHT22;27613;48.116;11.656;2023-07-20T04:44:23;17.70;99.90
41924;DHT22;27613;48.116;11.656;2023-07-20T04:46:48;17.60;99.90
41924;DHT22;27613;48.116;11.656;2023-07-20T04:49:14;17.60;99.90
41924;DHT22;27613;48.116;11.656;2023-07-20T04:51:40;17.50;99.90
41924;DHT22;27613;48.116;11.656;2023-07-20T04:54:05;17.50;99.90
41924;DHT22;27613;48.116;11.656;2023-07-20T04:56:31;17.70;99.90
41924;DHT22;27613;48.116;11.656;2023-07-20T04:58:56;17.80;99.90
41924;DHT22;27613;48.116;11.656;2023-07-20T05:01:23;17.90;99.90
41924;DHT22;27613;48.116;11.656;2023-07-20T05:03:48;18.00;99.90
41924;DHT22;27613;48.116;11.656;2023-07-20T05:06:14;17.90;99.90
41924;DHT22;27613;48.116;11.656;2023-07-20T05:08:40;18.00;99.90
41924;DHT22;27613;48.116;11.656;2023-07-20T05:11:05;18.00;99.90
41924;DHT22;27613;48.116;11.656;2023-07-20T05:13:32;17.90;99.90
41924;DHT22;27613;48.116;11.656;2023-07-20T05:15:58;18.00;99.90
41924;DHT22;27613;48.116;11.656;2023-07-20T05:18:23;17.90;99.90
41924;DHT22;27613;48.116;11.656;2023-07-20T05:20:50;18.00;99.90
41924;DHT22;27613;48.116;11.656;2023-07-20T05:23:18;18.00;99.90
41924;DHT22;27613;48.116;11.656;2023-07-20T05:25:45;18.10;99.90
41924;DHT22;27613;48.116;11.656;2023-07-20T05:28:10;18.20;99.90
41924;DHT22;27613;48.116;11.656;2023-07-20T05:30:36;18.20;99.90
41924;DHT22;27613;48.116;11.656;2023-07-20T05:33:01;18.10;99.90
41924;DHT22;27613;48.116;11.656;2023-07-20T05:35:27;17.90;99.90
41924;DHT22;27613;48.116;11.656;2023-07-20T05:37:53;17.90;99.90
41924;DHT22;27613;48.116;11.656;2023-07-20T05:40:19;17.90;99.90
41924;DHT22;27613;48.116;11.656;2023-07-20T05:42:48;18.00;99.90
41924;DHT22;27613;48.116;11.656;2023-07-20T05:45:17;18.20;99.90
41924;DHT22;27613;48.116;11.656;2023-07-20T05:47:43;18.00;99.90
41924;DHT22;27613;48.116;11.656;2023-07-20T05:50:09;18.20;99.90
41924;DHT22;27613;48.116;11.656;2023-07-20T05:52:35;18.30;99.90
41924;DHT22;27613;48.116;11.656;2023-07-20T05:55:00;18.40;99.90
41924;DHT22;27613;48.116;11.656;2023-07-20T05:57:26;18.60;99.90
41924;DHT22;27613;48.116;11.656;2023-07-20T05:59:51;18.50;99.90
41924;DHT22;27613;48.116;11.656;2023-07-20T06:02:17;18.60;99.90
41924;DHT22;27613;48.116;11.656;2023-07-20T06:04:43;18.80;99.90
41924;DHT22;27613;48.116;11.656;2023-07-20T06:07:08;18.90;98.00
41924;DHT22;27613;48.116;11.656;2023-07-20T06:09:34;19.00;96.20
41924;DHT22;27613;48.116;11.656;2023-07-20T06:12:00;19.00;92.20
41924;DHT22;27613;48.116;11.656;2023-07-20T06:14:25;19.10;91.40
41924;DHT22;27613;48.116;11.656;2023-07-20T06:16:51;19.00;91.30
41924;DHT22;27613;48.116;11.656;2023-07-20T06:19:17;19.20;90.80
41924;DHT22;27613;48.116;11.656;2023-07-20T06:21:42;19.30;89.60
41924;DHT22;27613;48.116;11.656;2023-07-20T06:24:08;19.40;86.60
41924;DHT22;27613;48.116;11.656;2023-07-20T06:26:34;19.30;87.30
41924;DHT22;27613;48.116;11.656;2023-07-20T06:29:05;19.40;84.40
41924;DHT22;27613;48.116;11.656;2023-07-20T06:31:32;19.40;84.20
41924;DHT22;27613;48.116;11.656;2023-07-20T06:33:57;19.60;82.10
41924;DHT22;27613;48.116;11.656;2023-07-20T06:36:23;19.50;83.20
41924;DHT22;27613;48.116;11.656;2023-07-20T06:38:48;19.50;81.10
41924;DHT22;27613;48.116;11.656;2023-07-20T06:41:14;19.70;83.30
41924;DHT22;27613;48.116;11.656;2023-07-20T06:43:39;19.60;81.20
41924;DHT22;27613;48.116;11.656;2023-07-20T06:46:05;19.60;82.60
41924;DHT22;27613;48.116;11.656;2023-07-20T06:48:30;19.50;82.10
41924;DHT22;27613;48.116;11.656;2023-07-20T06:50:56;19.40;81.00
41924;DHT22;27613;48.116;11.656;2023-07-20T06:53:22;19.30;81.10
41924;DHT22;27613;48.116;11.656;2023-07-20T06:55:47;19.50;81.10
41924;DHT22;27613;48.116;11.656;2023-07-20T06:58:13;19.70;79.90
41924;DHT22;27613;48.116;11.656;2023-07-20T07:00:39;19.70;80.10
41924;DHT22;27613;48.116;11.656;2023-07-20T07:03:04;19.90;80.20
41924;DHT22;27613;48.116;11.656;2023-07-20T07:05:30;20.00;80.00
41924;DHT22;27613;48.116;11.656;2023-07-20T07:07:56;20.00;81.40
41924;DHT22;27613;48.116;11.656;2023-07-20T07:10:21;20.40;80.50
41924;DHT22;27613;48.116;11.656;2023-07-20T07:12:47;20.30;80.10
41924;DHT22;27613;48.116;11.656;2023-07-20T07:15:12;20.40;77.30
41924;DHT22;27613;48.116;11.656;2023-07-20T07:17:38;20.30;76.90
41924;DHT22;27613;48.116;11.656;2023-07-20T07:20:05;20.40;77.20
41924;DHT22;27613;48.116;11.656;2023-07-20T07:22:30;20.50;76.40
41924;DHT22;27613;48.116;11.656;2023-07-20T07:24:56;20.40;77.00
41924;DHT22;27613;48.116;11.656;2023-07-20T07:27:23;20.60;76.40
41924;DHT22;27613;48.116;11.656;2023-07-20T07:29:48;20.80;76.30
41924;DHT22;27613;48.116;11.656;2023-07-20T07:32:15;20.90;76.70
41924;DHT22;27613;48.116;11.656;2023-07-20T07:34:40;20.90;75.90
41924;DHT22;27613;48.116;11.656;2023-07-20T07:37:06;20.80;73.50
41924;DHT22;27613;48.116;11.656;2023-07-20T07:39:31;20.70;69.30
41924;DHT22;27613;48.116;11.656;2023-07-20T07:41:57;21.00;70.60
41924;DHT22;27613;48.116;11.656;2023-07-20T07:44:23;21.40;70.10
41924;DHT22;27613;48.116;11.656;2023-07-20T07:46:49;21.30;68.90
41924;DHT22;27613;48.116;11.656;2023-07-20T07:49:15;21.20;69.70
41924;DHT22;27613;48.116;11.656;2023-07-20T07:51:40;21.00;69.90
41924;DHT22;27613;48.116;11.656;2023-07-20T07:54:06;21.20;69.40
41924;DHT22;27613;48.116;11.656;2023-07-20T07:56:32;21.50;69.90
41924;DHT22;27613;48.116;11.656;2023-07-20T07:58:57;21.40;69.60
41924;DHT22;27613;48.116;11.656;2023-07-20T08:01:23;21.60;68.40
41924;DHT22;27613;48.116;11.656;2023-07-20T08:03:48;21.70;68.10
41924;DHT22;27613;48.116;11.656;2023-07-20T08:06:14;22.10;66.40
41924;DHT22;27613;48.116;11.656;2023-07-20T08:08:40;22.40;67.00
41924;DHT22;27613;48.116;11.656;2023-07-20T08:11:05;22.30;65.20
41924;DHT22;27613;48.116;11.656;2023-07-20T08:13:31;22.40;66.60
41924;DHT22;27613;48.116;11.656;2023-07-20T08:15:57;22.40;65.90
41924;DHT22;27613;48.116;11.656;2023-07-20T08:18:23;22.10;64.80
41924;DHT22;27613;48.116;11.656;2023-07-20T08:20:49;21.90;65.10
41924;DHT22;27613;48.116;11.656;2023-07-20T08:23:14;21.70;66.70
41924;DHT22;27613;48.116;11.656;2023-07-20T08:25:40;21.90;66.80
41924;DHT22;27613;48.116;11.656;2023-07-20T08:28:10;21.70;67.20
41924;DHT22;27613;48.116;11.656;2023-07-20T08:30:48;21.70;67.70
41924;DHT22;27613;48.116;11.656;2023-07-20T08:33:17;21.80;67.90
41924;DHT22;27613;48.116;11.656;2023-07-20T08:35:44;22.20;68.20
41924;DHT22;27613;48.116;11.656;2023-07-20T08:38:10;22.10;67.10
41924;DHT22;27613;48.116;11.656;2023-07-20T08:40:44;21.90;66.60
41924;DHT22;27613;48.116;11.656;2023-07-20T08:43:10;22.30;65.80
41924;DHT22;27613;48.116;11.656;2023-07-20T08:45:39;22.80;64.30
41924;DHT22;27613;48.116;11.656;2023-07-20T08:48:06;23.20;64.80
41924;DHT22;27613;48.116;11.656;2023-07-20T08:50:32;21.70;66.70
41924;DHT22;27613;48.116;11.656;2023-07-20T08:52:59;22.20;67.70
41924;DHT22;27613;48.116;11.656;2023-07-20T08:55:29;22.60;66.40
41924;DHT22;27613;48.116;11.656;2023-07-20T08:57:56;22.30;66.60
41924;DHT22;27613;48.116;11.656;2023-07-20T09:00:23;22.70;66.20
41924;DHT22;27613;48.116;11.656;2023-07-20T09:02:50;23.00;65.60
41924;DHT22;27613;48.116;11.656;2023-07-20T09:05:22;23.20;65.40
41924;DHT22;27613;48.116;11.656;2023-07-20T09:07:49;22.90;66.80
41924;DHT22;27613;48.116;11.656;2023-07-20T09:10:15;22.80;66.40
41924;DHT22;27613;48.116;11.656;2023-07-20T09:12:42;22.80;66.10
41924;DHT22;27613;48.116;11.656;2023-07-20T09:15:10;22.20;66.50
41924;DHT22;27613;48.116;11.656;2023-07-20T09:17:37;22.20;68.10
41924;DHT22;27613;48.116;11.656;2023-07-20T09:20:07;22.20;68.90
41924;DHT22;27613;48.116;11.656;2023-07-20T09:22:37;21.60;67.50
41924;DHT22;27613;48.116;11.656;2023-07-20T09:25:13;21.90;66.80
41924;DHT22;27613;48.116;11.656;2023-07-20T09:27:43;22.20;66.20
41924;DHT22;27613;48.116;11.656;2023-07-20T09:30:10;22.70;65.90
41924;DHT22;27613;48.116;11.656;2023-07-20T09:32:49;23.80;61.80
41924;DHT22;27613;48.116;11.656;2023-07-20T09:35:20;24.40;61.60
41924;DHT22;27613;48.116;11.656;2023-07-20T09:38:08;24.90;60.50
41924;DHT22;27613;48.116;11.656;2023-07-20T09:40:37;24.70;61.30
41924;DHT22;27613;48.116;11.656;2023-07-20T09:43:08;24.20;59.80
41924;DHT22;27613;48.116;11.656;2023-07-20T09:45:35;23.60;60.70
41924;DHT22;27613;48.116;11.656;2023-07-20T09:48:05;23.70;59.60
41924;DHT22;27613;48.116;11.656;2023-07-20T09:50:32;24.00;59.80
41924;DHT22;27613;48.116;11.656;2023-07-20T09:52:58;23.80;60.40
41924;DHT22;27613;48.116;11.656;2023-07-20T09:55:26;23.70;60.20
41924;DHT22;27613;48.116;11.656;2023-07-20T09:57:53;24.10;59.80
41924;DHT22;27613;48.116;11.656;2023-07-20T10:00:19;24.00;59.60
41924;DHT22;27613;48.116;11.656;2023-07-20T10:02:46;24.10;60.30
41924;DHT22;27613;48.116;11.656;2023-07-20T10:05:15;24.90;59.10
41924;DHT22;27613;48.116;11.656;2023-07-20T10:07:50;25.00;58.20
41924;DHT22;27613;48.116;11.656;2023-07-20T10:10:17;25.10;58.90
41924;DHT22;27613;48.116;11.656;2023-07-20T10:12:46;25.60;58.40
41924;DHT22;27613;48.116;11.656;2023-07-20T10:18:03;25.30;58.20
41924;DHT22;27613;48.116;11.656;2023-07-20T10:20:32;26.00;57.20
41924;DHT22;27613;48.116;11.656;2023-07-20T10:22:59;27.50;55.40
41924;DHT22;27613;48.116;11.656;2023-07-20T10:25:25;27.20;53.80
41924;DHT22;27613;48.116;11.656;2023-07-20T10:27:51;25.30;58.00
41924;DHT22;27613;48.116;11.656;2023-07-20T10:30:17;27.10;56.50
41924;DHT22;27613;48.116;11.656;2023-07-20T10:32:45;28.00;55.40
41924;DHT22;27613;48.116;11.656;2023-07-20T10:35:15;29.30;52.20
41924;DHT22;27613;48.116;11.656;2023-07-20T10:37:54;27.50;53.10
41924;DHT22;27613;48.116;11.656;2023-07-20T10:40:34;26.60;56.50
41924;DHT22;27613;48.116;11.656;2023-07-20T10:43:07;26.10;55.70
41924;DHT22;27613;48.116;11.656;2023-07-20T10:45:48;26.00;56.50
41924;DHT22;27613;48.116;11.656;2023-07-20T10:48:20;27.60;55.10
41924;DHT22;27613;48.116;11.656;2023-07-20T10:53:34;27.00;54.20
41924;DHT22;27613;48.116;11.656;2023-07-20T10:56:08;29.00;52.40
41924;DHT22;27613;48.116;11.656;2023-07-20T10:58:36;29.30;52.40
41924;DHT22;27613;48.116;11.656;2023-07-20T11:01:03;30.00;49.80
41924;DHT22;27613;48.116;11.656;2023-07-20T11:03:35;29.10;51.70
41924;DHT22;27613;48.116;11.656;2023-07-20T11:08:55;28.50;51.40
41924;DHT22;27613;48.116;11.656;2023-07-20T11:11:29;29.20;51.50
41924;DHT22;27613;48.116;11.656;2023-07-20T11:13:59;27.20;52.40
41924;DHT22;27613;48.116;11.656;2023-07-20T11:16:44;26.90;53.80
41924;DHT22;27613;48.116;11.656;2023-07-20T11:21:56;29.20;52.10
41924;DHT22;27613;48.116;11.656;2023-07-20T11:24:23;29.00;50.80
41924;DHT22;27613;48.116;11.656;2023-07-20T11:26:52;30.20;49.90
41924;DHT22;27613;48.116;11.656;2023-07-20T11:29:20;30.70;49.50
41924;DHT22;27613;48.116;11.656;2023-07-20T11:31:46;32.60;49.20
41924;DHT22;27613;48.116;11.656;2023-07-20T11:34:15;32.70;47.90
41924;DHT22;27613;48.116;11.656;2023-07-20T11:36:41;32.90;45.50
41924;DHT22;27613;48.116;11.656;2023-07-20T11:39:12;32.30;46.80
41924;DHT22;27613;48.116;11.656;2023-07-20T11:41:38;31.60;46.00
41924;DHT22;27613;48.116;11.656;2023-07-20T11:44:05;31.50;46.70
41924;DHT22;27613;48.116;11.656;2023-07-20T11:46:39;29.50;48.90
41924;DHT22;27613;48.116;11.656;2023-07-20T11:49:05;28.70;50.10
41924;DHT22;27613;48.116;11.656;2023-07-20T11:51:31;28.80;49.30
41924;DHT22;27613;48.116;11.656;2023-07-20T11:53:58;28.90;49.30
41924;DHT22;27613;48.116;11.656;2023-07-20T11:56:25;29.60;48.10
41924;DHT22;27613;48.116;11.656;2023-07-20T11:58:54;30.50;48.00
41924;DHT22;27613;48.116;11.656;2023-07-20T12:01:20;32.40;47.20
41924;DHT22;27613;48.116;11.656;2023-07-20T12:03:48;31.70;45.20
41924;DHT22;27613;48.116;11.656;2023-07-20T12:06:13;31.20;45.50
41924;DHT22;27613;48.116;11.656;2023-07-20T12:08:40;30.90;46.50
41924;DHT22;27613;48.116;11.656;2023-07-20T12:11:07;32.30;47.30
41924;DHT22;27613;48.116;11.656;2023-07-20T12:16:10;33.20;44.20
41924;DHT22;27613;48.116;11.656;2023-07-20T12:18:36;33.80;44.00
41924;DHT22;27613;48.116;11.656;2023-07-20T12:21:01;34.60;43.50
41924;DHT22;27613;48.116;11.656;2023-07-20T12:23:38;34.40;44.30
41924;DHT22;27613;48.116;11.656;2023-07-20T12:26:06;33.40;42.30
41924;DHT22;27613;48.116;11.656;2023-07-20T12:28:32;32.00;44.70
41924;DHT22;27613;48.116;11.656;2023-07-20T12:30:58;32.10;43.90
41924;DHT22;27613;48.116;11.656;2023-07-20T12:33:24;32.60;43.80
41924;DHT22;27613;48.116;11.656;2023-07-20T12:35:49;29.70;47.60
41924;DHT22;27613;48.116;11.656;2023-07-20T12:38:15;30.90;47.70
41924;DHT22;27613;48.116;11.656;2023-07-20T12:40:42;32.90;45.30
41924;DHT22;27613;48.116;11.656;2023-07-20T12:43:08;33.80;44.30
41924;DHT22;27613;48.116;11.656;2023-07-20T12:45:34;32.60;44.60
41924;DHT22;27613;48.116;11.656;2023-07-20T12:47:59;31.90;45.30
41924;DHT22;27613;48.116;11.656;2023-07-20T12:50:26;31.60;46.30
41924;DHT22;27613;48.116;11.656;2023-07-20T12:52:52;31.80;46.30
41924;DHT22;27613;48.116;11.656;2023-07-20T12:55:18;31.90;45.40
41924;DHT22;27613;48.116;11.656;2023-07-20T12:57:45;30.10;47.30
41924;DHT22;27613;48.116;11.656;2023-07-20T13:00:11;30.50;48.10
41924;DHT22;27613;48.116;11.656;2023-07-20T13:02:38;32.20;47.30
41924;DHT22;27613;48.116;11.656;2023-07-20T13:05:04;31.80;45.40
41924;DHT22;27613;48.116;11.656;2023-07-20T13:07:35;30.90;45.60
41924;DHT22;27613;48.116;11.656;2023-07-20T13:10:01;32.70;45.70
41924;DHT22;27613;48.116;11.656;2023-07-20T13:12:28;31.90;45.40
41924;DHT22;27613;48.116;11.656;2023-07-20T13:14:55;29.80;47.10
41924;DHT22;27613;48.116;11.656;2023-07-20T13:17:22;30.10;48.20
41924;DHT22;27613;48.116;11.656;2023-07-20T13:19:47;30.20;47.60
41924;DHT22;27613;48.116;11.656;2023-07-20T13:22:13;32.30;46.10
41924;DHT22;27613;48.116;11.656;2023-07-20T13:24:40;31.90;45.20
41924;DHT22;27613;48.116;11.656;2023-07-20T13:27:06;31.30;46.00
41924;DHT22;27613;48.116;11.656;2023-07-20T13:29:32;31.10;46.50
41924;DHT22;27613;48.116;11.656;2023-07-20T13:31:58;30.90;46.60
41924;DHT22;27613;48.116;11.656;2023-07-20T13:34:25;30.60;45.70
41924;DHT22;27613;48.116;11.656;2023-07-20T13:36:51;31.10;47.20
41924;DHT22;27613;48.116;11.656;2023-07-20T13:39:16;31.20;47.00
41924;DHT22;27613;48.116;11.656;2023-07-20T13:41:42;32.00;46.50
41924;DHT22;27613;48.116;11.656;2023-07-20T13:44:08;31.40;46.00
41924;DHT22;27613;48.116;11.656;2023-07-20T13:46:33;30.80;45.70
41924;DHT22;27613;48.116;11.656;2023-07-20T13:48:59;31.40;45.60
41924;DHT22;27613;48.116;11.656;2023-07-20T13:51:25;32.50;44.00
41924;DHT22;27613;48.116;11.656;2023-07-20T13:53:51;31.60;44.10
41924;DHT22;27613;48.116;11.656;2023-07-20T13:56:17;30.90;45.40
41924;DHT22;27613;48.116;11.656;2023-07-20T13:58:43;29.70;47.30
41924;DHT22;27613;48.116;11.656;2023-07-20T14:01:08;30.50;47.40
41924;DHT22;27613;48.116;11.656;2023-07-20T14:03:34;31.70;46.00
41924;DHT22;27613;48.116;11.656;2023-07-20T14:05:59;31.60;46.80
41924;DHT22;27613;48.116;11.656;2023-07-20T14:08:25;32.40;45.30
41924;DHT22;27613;48.116;11.656;2023-07-20T14:10:50;32.90;45.30
41924;DHT22;27613;48.116;11.656;2023-07-20T14:13:16;32.00;43.70
41924;DHT22;27613;48.116;11.656;2023-07-20T14:15:41;30.90;45.50
41924;DHT22;27613;48.116;11.656;2023-07-20T14:18:07;32.10;46.70
41924;DHT22;27613;48.116;11.656;2023-07-20T14:20:33;32.50;43.70
41924;DHT22;27613;48.116;11.656;2023-07-20T14:22:58;33.10;43.60
41924;DHT22;27613;48.116;11.656;2023-07-20T14:25:24;32.90;43.90
41924;DHT22;27613;48.116;11.656;2023-07-20T14:27:49;31.10;44.80
41924;DHT22;27613;48.116;11.656;2023-07-20T14:30:15;32.20;45.50
41924;DHT22;27613;48.116;11.656;2023-07-20T14:32:41;32.70;42.70
41924;DHT22;27613;48.116;11.656;2023-07-20T14:35:07;32.00;44.70
41924;DHT22;27613;48.116;11.656;2023-07-20T14:37:32;32.50;44.40
41924;DHT22;27613;48.116;11.656;2023-07-20T14:39:58;33.00;43.70
41924;DHT22;27613;48.116;11.656;2023-07-20T14:42:24;30.30;45.70
41924;DHT22;27613;48.116;11.656;2023-07-20T14:44:49;30.70;45.50
41924;DHT22;27613;48.116;11.656;2023-07-20T14:47:15;33.00;42.40
41924;DHT22;27613;48.116;11.656;2023-07-20T14:49:44;32.00;42.90
41924;DHT22;27613;48.116;11.656;2023-07-20T14:52:10;32.20;44.00
41924;DHT22;27613;48.116;11.656;2023-07-20T14:54:35;34.10;42.80
41924;DHT22;27613;48.116;11.656;2023-07-20T14:57:01;34.60;41.70
41924;DHT22;27613;48.116;11.656;2023-07-20T14:59:28;34.30;42.40
41924;DHT22;27613;48.116;11.656;2023-07-20T15:01:53;35.00;41.30
41924;DHT22;27613;48.116;11.656;2023-07-20T15:04:19;35.10;40.70
41924;DHT22;27613;48.116;11.656;2023-07-20T15:06:44;35.00;40.30
41924;DHT22;27613;48.116;11.656;2023-07-20T15:09:10;33.90;41.70
41924;DHT22;27613;48.116;11.656;2023-07-20T15:11:36;35.20;41.60
41924;DHT22;27613;48.116;11.656;2023-07-20T15:14:02;35.10;41.40
41924;DHT22;27613;48.116;11.656;2023-07-20T15:16:27;34.70;41.80
41924;DHT22;27613;48.116;11.656;2023-07-20T15:18:53;35.30;39.90
41924;DHT22;27613;48.116;11.656;2023-07-20T15:21:18;35.30;41.10
41924;DHT22;27613;48.116;11.656;2023-07-20T15:23:44;34.80;41.00
41924;DHT22;27613;48.116;11.656;2023-07-20T15:26:10;34.80;41.20
41924;DHT22;27613;48.116;11.656;2023-07-20T15:28:40;34.90;41.10
41924;DHT22;27613;48.116;11.656;2023-07-20T15:31:06;33.20;43.50